Littleton, CO (80121)

7:36 AM MDT on April 18, 2015 (GMT -0600)
Taz RV - South Humboldt Place | | Change Station
CLOSE
Current Station
Personal Weather Station
Location: Centennial, CO
Elevation: 5538 ft
Nearby Weather Stations

Elev 5538 ft 39.60 °N, 104.97 °W | Updated 8 seconds ago

Overcast
Overcast
38.1 °F
Feels Like 38 °F
N
0.0
Wind Variable Wind from SSE

Today
High -- | Low -- °F
--% Chance of Precip.
Yesterday
High -- | Low -- °F
Precip. -- in
6:18 AM 7:40 PM
Waning Crescent, 0% visible
Pressure 29.95 in
Visibility 9.0 miles
Clouds Mostly Cloudy 900 ft
Mostly Cloudy 1200 ft
Overcast 1800 ft
Windchill 38 °F
Dew Point 38 °F
Humidity 99%
Rainfall 0.04 in
Snow Depth Not available.
UV 0 out of 12
Pollen 6.20 out of 12
Air Quality Not available.
Flu Activity Local Activity
SPECI KAPA 181330Z 25003KT 9SM BKN009 BKN012 OVC018 03/02 A2995 RMK AO2 T00280017

More Conditions Fewer Conditions

Pressure 29.95 in
Visibility 9.0 miles
Clouds Mostly Cloudy 900 ft
Mostly Cloudy 1200 ft
Overcast 1800 ft
Windchill 38 °F
Dew Point 38 °F
Humidity 99%
Rainfall 0.04 in
Snow Depth Not available.
UV 0 out of 12
Pollen 6.20 out of 12
Air Quality Not available.
Flu Activity Local Activity
SPECI KAPA 181330Z 25003KT 9SM BKN009 BKN012 OVC018 03/02 A2995 RMK AO2 T00280017

More Conditions Fewer Conditions

Nowcast | as of 6:26 am MDT on April 18, 2015

Isolated light rain showers will continue along the Front Range through mid morning. The showers will be most numerous near the foothills and south of Denver. A few heavier showers in Douglas and Elbert counties could produce a dusting of snow.

×

10-Day Weather Forecast

Almanac

Astronomy

Apr. 18, 2015 Rise Set
Actual Time
Civil Twilight
Nautical Twilight
Astronomical Twilight
Moon
Length of Visible Light
Length of Day
Tomorrow will be .
, % of the Moon is Illuminated

Today's Extremes

State Highs State Lows

Community

WunderPhotos

Upload Photos

1,814,390 photos uploaded!

WunderBlogs® & News

Nearby

Air Quality

  Air Quality AQ Index Pollutant
Not available.

Snow Depth

Station Depth Elevation

Earthquake Activity

City Distance Mag. Time & Date
Minimum magnitude displayed is 2.5.

Coastal Water Temperatures

Place Temperature

Stations

Nearby Weather Stations

Station Location Temp. Windchill Dew Point Humidity Wind Precip. Elev Updated Type